createdAt,value
2023-09-20T12:42:34.819Z,22.20
2023-09-20T12:45:06.029Z,21.80
2023-09-20T12:47:37.134Z,22.00
2023-09-20T12:50:04.801Z,21.80
2023-09-20T12:52:32.772Z,22.30
2023-09-20T12:55:00.089Z,22.40
2023-09-20T13:02:22.158Z,22.40
2023-09-20T13:04:50.806Z,22.60
2023-09-20T13:09:45.886Z,22.70
2023-09-20T13:12:13.414Z,22.80
2023-09-20T13:17:08.669Z,22.90
2023-09-20T13:22:03.105Z,23.20
2023-09-20T13:27:00.655Z,23.20
2023-09-20T13:29:29.095Z,23.30
2023-09-20T13:31:56.050Z,23.40
2023-09-20T13:34:23.347Z,23.40
2023-09-20T13:36:50.121Z,23.40
2023-09-20T13:39:19.918Z,23.40
2023-09-20T13:41:46.921Z,23.30
2023-09-20T13:44:13.736Z,23.40
2023-09-20T13:46:40.839Z,23.40
2023-09-20T13:49:07.849Z,23.40
2023-09-20T13:51:34.731Z,23.50
2023-09-20T13:54:01.581Z,23.50
2023-09-20T13:56:29.352Z,23.60
2023-09-20T13:58:56.109Z,23.60
2023-09-20T14:01:23.025Z,23.60
2023-09-20T14:03:50.006Z,23.70
2023-09-20T14:06:19.767Z,23.90
2023-09-20T14:11:15.210Z,22.30
2023-09-20T14:13:42.705Z,24.40
2023-09-20T14:18:43.484Z,25.10
2023-09-20T14:21:10.633Z,25.10
2023-09-20T14:23:38.562Z,25.40
2023-09-20T14:26:12.920Z,25.60
2023-09-20T14:28:43.103Z,25.80
2023-09-20T14:31:17.444Z,26.00
2023-09-20T14:33:44.387Z,26.60
2023-09-20T14:36:12.545Z,26.90
2023-09-20T14:38:39.778Z,27.00
2023-09-20T14:41:06.869Z,28.00
2023-09-20T14:43:35.006Z,29.50
2023-09-20T14:46:07.121Z,30.20
2023-09-20T14:51:04.981Z,32.80
2023-09-20T14:53:33.200Z,32.90
2023-09-20T14:55:59.925Z,32.40
2023-09-20T14:58:27.860Z,31.70
2023-09-20T15:00:54.673Z,31.20
2023-09-20T15:03:22.039Z,30.60
2023-09-20T15:10:46.671Z,28.20
2023-09-20T15:15:43.115Z,26.50
2023-09-20T15:18:09.886Z,26.10
2023-09-20T15:20:36.659Z,25.80
2023-09-20T15:23:03.412Z,25.60
2023-09-20T15:27:58.272Z,25.00
2023-09-20T15:30:25.941Z,24.80
2023-09-20T15:35:20.925Z,24.60
2023-09-20T15:37:48.977Z,24.50
2023-09-20T15:40:17.644Z,24.40
2023-09-20T15:42:46.466Z,24.30
2023-09-20T15:45:14.605Z,24.30
2023-09-20T15:47:41.679Z,24.20
2023-09-20T15:50:09.296Z,24.10
2023-09-20T15:52:40.858Z,24.20
2023-09-20T15:55:09.513Z,24.10
2023-09-20T15:57:36.616Z,24.00
2023-09-20T16:00:04.409Z,24.00
2023-09-20T16:04:58.509Z,23.80
2023-09-20T16:07:27.697Z,23.70
2023-09-20T16:09:55.674Z,23.70
2023-09-20T16:12:22.469Z,23.70
2023-09-20T16:14:49.312Z,23.60
2023-09-20T16:17:16.513Z,23.50
2023-09-20T16:19:43.741Z,23.50
2023-09-20T16:22:10.660Z,23.50
2023-09-20T16:24:37.376Z,23.40
2023-09-20T16:27:04.250Z,23.40
2023-09-20T16:29:31.540Z,23.40
2023-09-20T16:31:58.439Z,23.30
2023-09-20T16:34:28.939Z,23.30
2023-09-20T16:36:56.144Z,23.20
2023-09-20T16:39:23.037Z,23.20
2023-09-20T16:41:50.061Z,23.20
2023-09-20T16:44:16.895Z,23.20
2023-09-20T16:49:13.030Z,22.90
2023-09-20T16:51:39.823Z,23.00
2023-09-20T16:54:06.648Z,22.90
2023-09-20T16:56:33.702Z,22.80
2023-09-20T16:59:01.166Z,22.80
2023-09-20T17:01:27.948Z,22.70
2023-09-20T17:03:54.778Z,22.80
2023-09-20T17:06:21.554Z,22.60
2023-09-20T17:08:48.918Z,22.60
2023-09-20T17:11:17.597Z,22.50
2023-09-20T17:13:44.461Z,22.50
2023-09-20T17:16:11.459Z,22.50
2023-09-20T17:18:38.308Z,22.40
2023-09-20T17:21:05.145Z,22.40
2023-09-20T17:23:32.319Z,22.30
2023-09-20T17:25:58.999Z,22.30
2023-09-20T17:31:02.026Z,22.00
2023-09-20T17:33:29.180Z,22.00
2023-09-20T17:36:00.963Z,22.00
2023-09-20T17:38:31.571Z,21.80
2023-09-20T17:41:01.061Z,21.80
2023-09-20T17:43:29.230Z,21.80
2023-09-20T17:45:56.117Z,21.60
2023-09-20T17:48:22.930Z,21.40
2023-09-20T17:50:50.234Z,21.40
2023-09-20T17:53:16.905Z,21.40
2023-09-20T17:55:44.367Z,21.30
2023-09-20T17:58:13.147Z,21.30
2023-09-20T18:00:41.579Z,21.20
2023-09-20T18:03:08.529Z,21.10
2023-09-20T18:05:35.379Z,21.10
2023-09-20T18:08:02.483Z,21.00
2023-09-20T18:10:29.226Z,21.10
2023-09-20T19:34:36.264Z,19.30
2023-09-20T19:37:03.649Z,19.50
2023-09-20T19:39:30.380Z,19.50
2023-09-20T19:41:57.920Z,19.40
2023-09-20T19:44:26.671Z,19.40
2023-09-20T19:46:53.474Z,19.40
2023-09-20T19:49:22.093Z,19.30
2023-09-20T19:51:48.825Z,19.30
2023-09-20T19:54:15.622Z,19.30
2023-09-20T19:56:43.683Z,19.30
2023-09-20T19:59:13.524Z,19.30
2023-09-20T20:01:40.687Z,19.30
2023-09-20T20:04:09.723Z,19.40
2023-09-20T20:06:37.276Z,19.40
2023-09-20T20:09:08.577Z,19.40
2023-09-20T20:11:35.901Z,19.40
2023-09-20T20:14:02.706Z,19.40
2023-09-20T20:16:31.613Z,19.40
2023-09-20T20:19:00.336Z,19.40
2023-09-20T20:21:27.105Z,19.30
2023-09-20T20:23:55.161Z,19.30
2023-09-20T20:26:22.821Z,19.30
2023-09-20T20:28:51.213Z,19.20
2023-09-20T20:31:21.474Z,19.20
2023-09-20T20:33:48.901Z,19.20
2023-09-20T20:36:15.741Z,19.20
2023-09-20T20:38:43.281Z,19.30
2023-09-20T20:41:10.517Z,19.20
2023-09-20T20:43:38.702Z,19.20
2023-09-20T20:46:16.917Z,19.20
2023-09-20T20:48:47.094Z,19.20
2023-09-20T20:51:16.133Z,19.20
2023-09-20T20:53:47.983Z,19.20
2023-09-20T20:56:16.557Z,19.20
2023-09-20T20:58:44.798Z,19.20
2023-09-20T21:01:12.928Z,19.20
2023-09-20T21:03:42.440Z,19.20
2023-09-20T21:06:10.990Z,19.10
2023-09-20T21:08:38.545Z,19.10
2023-09-20T21:11:12.308Z,19.10
2023-09-20T21:13:39.185Z,19.10
2023-09-20T21:16:06.006Z,19.10
2023-09-20T21:18:32.770Z,19.10
2023-09-20T21:21:06.720Z,19.10
2023-09-20T21:23:35.396Z,19.00
2023-09-20T21:26:04.523Z,19.00
2023-09-20T21:28:31.274Z,19.00
2023-09-20T21:30:58.036Z,19.10
2023-09-20T21:33:25.437Z,19.00
2023-09-20T21:35:52.332Z,19.00
2023-09-20T21:38:19.217Z,19.10
2023-09-20T21:40:46.090Z,19.10
2023-09-20T21:43:13.378Z,19.00
2023-09-20T21:45:40.175Z,19.00
2023-09-20T21:48:07.992Z,19.10
2023-09-20T21:50:35.991Z,19.10
2023-09-20T21:53:05.022Z,19.10
2023-09-20T21:55:32.423Z,19.00
2023-09-20T21:57:59.140Z,19.00
2023-09-20T22:00:28.942Z,18.90
2023-09-20T22:03:05.501Z,19.00
2023-09-20T22:05:34.502Z,19.00
2023-09-20T22:08:04.228Z,18.90
2023-09-20T22:10:41.715Z,19.00
2023-09-20T22:13:12.172Z,19.00
2023-09-20T22:15:41.430Z,19.00
2023-09-20T22:18:18.776Z,19.00
2023-09-20T22:20:46.883Z,19.00
2023-09-20T22:23:14.520Z,19.00
2023-09-20T22:25:41.585Z,19.00
2023-09-20T22:28:08.656Z,19.00
2023-09-20T22:30:39.544Z,19.00
2023-09-20T22:33:08.789Z,19.10
2023-09-20T22:35:36.003Z,19.00
2023-09-20T22:38:04.080Z,19.00
2023-09-20T22:40:31.033Z,19.00
2023-09-20T22:42:57.727Z,19.00
2023-09-20T22:45:28.453Z,19.00
2023-09-20T22:48:00.051Z,19.00
2023-09-20T22:50:29.687Z,19.00
2023-09-20T22:53:06.756Z,19.00
2023-09-20T22:55:40.714Z,19.00
2023-09-20T22:58:14.852Z,19.00
2023-09-20T23:00:47.090Z,19.00
2023-09-20T23:03:16.000Z,19.00
2023-09-20T23:05:44.245Z,19.00
2023-09-20T23:08:12.817Z,19.00
2023-09-20T23:10:45.618Z,19.00
2023-09-20T23:13:19.507Z,19.00
2023-09-20T23:15:46.810Z,19.00
2023-09-20T23:18:13.530Z,18.90
2023-09-20T23:20:43.722Z,18.90
2023-09-20T23:23:14.967Z,18.90
2023-09-20T23:25:42.569Z,18.90
2023-09-20T23:28:11.455Z,18.90
2023-09-20T23:30:43.040Z,18.90
2023-09-20T23:33:15.415Z,18.90
2023-09-20T23:38:29.414Z,18.80
2023-09-20T23:41:11.513Z,18.70
2023-09-20T23:43:46.289Z,18.60
2023-09-20T23:46:27.160Z,18.60
2023-09-20T23:48:55.110Z,18.60
2023-09-20T23:51:22.825Z,18.60
2023-09-20T23:53:50.703Z,18.50
2023-09-20T23:56:18.368Z,18.50
2023-09-20T23:58:45.924Z,18.60
